createdAt,value
2019-05-18T00:01:42.271Z,20.27
2019-05-18T00:04:11.723Z,17.87
2019-05-18T00:06:41.144Z,18.37
2019-05-18T00:09:10.650Z,18.50
2019-05-18T00:11:40.051Z,18.43
2019-05-18T00:14:09.501Z,18.90
2019-05-18T00:16:39.209Z,18.37
2019-05-18T00:19:08.733Z,17.80
2019-05-18T00:21:38.106Z,17.90
2019-05-18T00:24:07.948Z,17.53
2019-05-18T00:26:37.276Z,17.63
2019-05-18T00:29:06.612Z,19.97
2019-05-18T00:31:36.099Z,20.30
2019-05-18T00:34:05.522Z,19.30
2019-05-18T00:36:37.831Z,19.13
2019-05-18T00:39:07.758Z,19.43
2019-05-18T00:41:37.228Z,18.53
2019-05-18T00:44:06.569Z,19.43
2019-05-18T00:46:37.160Z,19.63
2019-05-18T00:49:06.647Z,19.53
2019-05-18T00:51:36.129Z,18.80
2019-05-18T00:54:05.577Z,19.57
2019-05-18T00:56:35.304Z,19.63
2019-05-18T00:59:05.116Z,19.23
2019-05-18T01:01:34.548Z,19.13
2019-05-18T01:04:04.054Z,19.27
2019-05-18T01:06:33.446Z,19.97
2019-05-18T01:09:02.902Z,19.00
2019-05-18T01:11:32.391Z,19.10
2019-05-18T01:14:01.826Z,19.80
2019-05-18T01:16:31.647Z,19.43
2019-05-18T01:19:01.108Z,19.97
2019-05-18T01:21:30.959Z,19.63
2019-05-18T01:24:00.425Z,19.17
2019-05-18T01:26:29.878Z,19.13
2019-05-18T01:29:03.279Z,19.87
2019-05-18T01:31:33.340Z,20.53
2019-05-18T01:34:02.756Z,19.80
2019-05-18T01:36:32.172Z,19.10
2019-05-18T01:39:01.540Z,19.77
2019-05-18T01:41:30.931Z,19.43
2019-05-18T01:44:00.379Z,19.27
2019-05-18T01:46:29.930Z,19.03
2019-05-18T01:48:59.388Z,19.93
2019-05-18T01:51:28.814Z,19.37
2019-05-18T01:53:58.274Z,19.60
2019-05-18T01:56:27.658Z,19.17
2019-05-18T01:58:57.125Z,19.47
2019-05-18T02:01:26.513Z,18.87
2019-05-18T02:03:56.016Z,19.90
2019-05-18T02:06:25.366Z,20.43
2019-05-18T02:08:55.784Z,20.70
2019-05-18T02:11:25.200Z,20.80
2019-05-18T02:13:54.628Z,19.37
2019-05-18T02:16:24.096Z,19.27
2019-05-18T02:18:53.520Z,20.53
2019-05-18T02:21:22.853Z,19.53
2019-05-18T02:23:52.714Z,20.40
2019-05-18T02:26:22.538Z,21.17
2019-05-18T02:28:51.995Z,19.07
2019-05-18T02:31:21.397Z,21.10
2019-05-18T02:33:50.861Z,20.37
2019-05-18T02:36:20.275Z,20.47
2019-05-18T02:38:49.681Z,21.00
2019-05-18T02:41:20.041Z,20.40
2019-05-18T02:43:49.846Z,21.30
2019-05-18T02:46:19.276Z,21.90
2019-05-18T02:48:50.683Z,20.67
2019-05-18T02:51:19.702Z,21.57
2019-05-18T02:53:49.153Z,21.43
2019-05-18T02:56:18.595Z,21.77
2019-05-18T02:58:47.980Z,21.63
2019-05-18T03:01:17.507Z,22.27
2019-05-18T03:03:46.842Z,22.43
2019-05-18T03:06:16.249Z,22.50
2019-05-18T03:08:45.791Z,22.17
2019-05-18T03:11:15.194Z,21.83
2019-05-18T03:13:44.859Z,22.00
2019-05-18T03:16:14.296Z,22.63
2019-05-18T03:18:43.787Z,21.93
2019-05-18T03:21:13.187Z,22.10
2019-05-18T03:23:42.550Z,23.23
2019-05-18T03:26:12.020Z,22.37
2019-05-18T03:28:41.572Z,22.40
2019-05-18T03:31:11.081Z,22.07
2019-05-18T03:33:40.543Z,22.60
2019-05-18T03:36:09.965Z,22.37
2019-05-18T03:38:39.325Z,22.87
2019-05-18T03:41:09.208Z,22.30
2019-05-18T03:43:38.582Z,21.90
2019-05-18T03:46:08.028Z,22.83
2019-05-18T03:48:37.400Z,22.87
2019-05-18T03:51:25.877Z,24.03
2019-05-18T03:53:55.339Z,22.90
2019-05-18T03:56:24.784Z,23.43
2019-05-18T03:58:54.560Z,22.43
2019-05-18T04:01:23.973Z,22.17
2019-05-18T04:03:53.790Z,23.00
2019-05-18T04:06:23.201Z,22.03
2019-05-18T04:08:52.617Z,23.43
2019-05-18T04:11:22.054Z,22.53
2019-05-18T04:13:51.455Z,22.70
2019-05-18T04:16:20.907Z,22.63
2019-05-18T04:18:50.636Z,23.17
2019-05-18T04:21:20.509Z,25.20
2019-05-18T04:23:49.999Z,23.47
2019-05-18T04:26:19.383Z,22.57
2019-05-18T04:28:48.827Z,23.67
2019-05-18T04:31:18.234Z,24.33
2019-05-18T04:33:47.859Z,24.00
2019-05-18T04:36:17.247Z,24.47
2019-05-18T04:38:46.712Z,23.60
2019-05-18T04:41:16.226Z,23.57
2019-05-18T04:43:45.687Z,23.80
2019-05-18T04:46:15.074Z,22.93
2019-05-18T04:48:44.539Z,25.23
2019-05-18T04:51:13.941Z,24.40
2019-05-18T04:53:43.445Z,23.57
2019-05-18T04:56:12.824Z,23.00
2019-05-18T04:58:42.248Z,24.37
2019-05-18T05:01:11.722Z,23.87
2019-05-18T05:03:41.875Z,23.63
2019-05-18T05:06:11.283Z,23.10
2019-05-18T05:08:40.733Z,23.70
2019-05-18T05:11:10.147Z,23.33
2019-05-18T05:13:39.578Z,23.57
2019-05-18T05:16:09.002Z,22.63
2019-05-18T05:18:38.433Z,23.87
2019-05-18T05:21:08.307Z,22.93
2019-05-18T05:23:37.652Z,22.83
2019-05-18T05:26:07.058Z,23.53
2019-05-18T05:28:36.610Z,23.40
2019-05-18T05:31:06.053Z,23.27
2019-05-18T05:33:35.489Z,23.27
2019-05-18T05:36:04.912Z,23.23
2019-05-18T05:38:34.353Z,23.20
2019-05-18T05:41:03.751Z,23.43
2019-05-18T05:43:33.249Z,23.23
2019-05-18T05:46:02.687Z,24.37
2019-05-18T05:48:32.154Z,24.00
2019-05-18T05:51:01.528Z,21.40
2019-05-18T05:53:30.941Z,23.27
2019-05-18T05:56:00.377Z,21.83
2019-05-18T05:58:29.898Z,22.10
2019-05-18T06:00:59.278Z,22.63
2019-05-18T06:03:28.750Z,23.03
2019-05-18T06:05:58.536Z,21.90
2019-05-18T06:08:27.981Z,22.10
2019-05-18T06:10:57.390Z,22.43
2019-05-18T06:13:26.858Z,22.60
2019-05-18T06:15:56.284Z,21.90
2019-05-18T06:18:25.720Z,21.37
2019-05-18T06:20:55.442Z,22.37
2019-05-18T06:23:24.819Z,22.27
2019-05-18T06:25:54.244Z,22.80
2019-05-18T06:28:23.660Z,21.27
2019-05-18T06:30:53.116Z,21.27
2019-05-18T06:33:22.522Z,20.60
2019-05-18T06:35:52.053Z,22.97
2019-05-18T06:38:21.433Z,21.70
2019-05-18T06:40:50.823Z,22.93
2019-05-18T06:43:20.402Z,24.83
2019-05-18T06:45:49.819Z,23.50
2019-05-18T06:48:19.209Z,22.13
2019-05-18T06:50:48.625Z,21.40
2019-05-18T06:53:18.253Z,22.87
2019-05-18T06:55:48.413Z,22.23
2019-05-18T06:58:18.136Z,22.30
2019-05-18T07:00:47.574Z,22.87
2019-05-18T07:03:17.288Z,21.93
2019-05-18T07:05:46.936Z,21.90
2019-05-18T07:08:16.400Z,22.60
2019-05-18T07:10:45.814Z,21.40
2019-05-18T07:13:15.249Z,21.20
2019-05-18T07:15:44.895Z,20.73
2019-05-18T07:18:14.335Z,21.00
2019-05-18T07:20:43.809Z,20.33
2019-05-18T07:23:13.228Z,21.63
2019-05-18T07:25:42.506Z,20.53
2019-05-18T07:28:11.962Z,24.80
2019-05-18T07:30:41.353Z,22.70
2019-05-18T07:33:10.749Z,21.63
2019-05-18T07:35:40.320Z,20.40
2019-05-18T07:38:09.730Z,21.70
2019-05-18T07:40:39.485Z,20.07
2019-05-18T07:43:08.901Z,19.97
2019-05-18T07:45:38.242Z,20.00
2019-05-18T07:48:07.717Z,21.63
2019-05-18T07:50:37.157Z,19.63
2019-05-18T07:53:06.908Z,20.47
2019-05-18T07:55:36.717Z,20.93
2019-05-18T07:58:06.147Z,21.43
2019-05-18T08:00:35.595Z,20.00
2019-05-18T08:03:05.286Z,21.03
2019-05-18T08:05:34.722Z,20.00
2019-05-18T08:08:04.150Z,21.73
2019-05-18T08:10:37.665Z,19.47
2019-05-18T08:13:08.073Z,18.90
2019-05-18T08:15:37.720Z,20.33
2019-05-18T08:18:07.400Z,20.80
2019-05-18T08:20:37.104Z,19.47
2019-05-18T08:23:06.549Z,19.30
2019-05-18T08:25:35.962Z,19.53
2019-05-18T08:28:05.419Z,18.17
2019-05-18T08:30:35.013Z,20.63
2019-05-18T08:33:04.446Z,20.97
2019-05-18T08:35:33.865Z,21.07
2019-05-18T08:38:03.297Z,20.93
2019-05-18T08:40:32.703Z,21.40
2019-05-18T08:43:02.111Z,20.53
2019-05-18T08:45:31.571Z,20.33
2019-05-18T08:48:01.336Z,18.83
2019-05-18T08:50:30.987Z,19.47
2019-05-18T08:53:00.395Z,18.03
2019-05-18T08:55:29.917Z,20.13
2019-05-18T08:57:59.441Z,20.77
2019-05-18T09:00:28.875Z,23.10
2019-05-18T09:02:58.841Z,25.47
2019-05-18T09:05:28.259Z,20.07
2019-05-18T09:07:58.090Z,23.10
2019-05-18T09:10:27.958Z,20.10
2019-05-18T09:12:57.398Z,18.50
2019-05-18T09:15:27.012Z,17.67
2019-05-18T09:17:56.845Z,19.17
2019-05-18T09:20:26.301Z,23.00
2019-05-18T09:22:55.718Z,18.03
2019-05-18T09:25:25.051Z,17.40
2019-05-18T09:27:55.034Z,21.93
2019-05-18T09:30:24.765Z,17.83
2019-05-18T09:32:54.284Z,17.53
2019-05-18T09:35:23.736Z,15.90
2019-05-18T09:37:53.181Z,16.13
2019-05-18T09:40:22.837Z,17.33
2019-05-18T09:42:52.285Z,17.67
2019-05-18T09:45:22.225Z,15.00
2019-05-18T09:47:51.527Z,14.33
2019-05-18T09:50:21.279Z,15.27
2019-05-18T09:52:50.729Z,14.17
2019-05-18T09:55:20.171Z,15.00
2019-05-18T09:57:49.647Z,15.60
2019-05-18T10:00:19.481Z,15.93
2019-05-18T10:02:48.948Z,15.53
2019-05-18T10:05:19.042Z,12.53
2019-05-18T10:07:48.817Z,14.27
2019-05-18T10:10:18.611Z,15.13
2019-05-18T10:12:48.057Z,14.23
2019-05-18T10:15:17.708Z,14.27
2019-05-18T10:17:47.117Z,13.90
2019-05-18T10:20:17.059Z,15.90
2019-05-18T10:22:59.010Z,13.27
2019-05-18T10:25:17.705Z,14.67
2019-05-18T10:27:47.109Z,13.00
2019-05-18T10:30:16.534Z,13.57
2019-05-18T10:32:45.971Z,12.30
2019-05-18T10:35:16.539Z,11.97
2019-05-18T10:37:45.992Z,11.83
2019-05-18T10:40:15.849Z,12.63
2019-05-18T10:42:45.195Z,11.47
2019-05-18T10:45:14.849Z,11.50
2019-05-18T10:47:44.807Z,10.87
2019-05-18T10:50:14.140Z,11.83
2019-05-18T10:52:44.015Z,10.73
2019-05-18T10:55:14.547Z,10.60
2019-05-18T10:57:44.047Z,10.10
2019-05-18T11:00:13.979Z,10.70
2019-05-18T11:02:43.393Z,10.83
2019-05-18T11:05:14.214Z,10.13
2019-05-18T11:07:43.605Z,8.90
2019-05-18T11:10:13.324Z,8.73
2019-05-18T11:12:42.813Z,8.17
2019-05-18T11:15:13.203Z,7.83
2019-05-18T11:17:42.629Z,7.43
2019-05-18T11:20:13.586Z,7.23
2019-05-18T11:22:43.021Z,8.00
2019-05-18T11:25:13.446Z,7.23
2019-05-18T11:27:42.870Z,6.43
2019-05-18T11:30:13.634Z,6.80
2019-05-18T11:32:43.189Z,6.47
2019-05-18T11:35:13.358Z,6.40
2019-05-18T11:37:42.797Z,6.37
2019-05-18T11:40:13.006Z,5.97
2019-05-18T11:42:42.480Z,5.20
2019-05-18T11:45:13.299Z,4.93
2019-05-18T11:47:42.739Z,5.80
2019-05-18T11:50:13.080Z,4.90
2019-05-18T11:52:42.460Z,4.93
2019-05-18T11:55:12.289Z,5.30
2019-05-18T11:57:41.741Z,4.37
2019-05-18T12:00:13.909Z,4.73
2019-05-18T12:02:43.498Z,4.17
2019-05-18T12:05:13.352Z,4.90
2019-05-18T12:07:42.778Z,4.60
2019-05-18T12:10:12.664Z,4.70
2019-05-18T12:12:42.111Z,4.63
2019-05-18T12:15:12.534Z,4.20
2019-05-18T12:17:41.936Z,4.13
2019-05-18T12:20:11.964Z,3.93
2019-05-18T12:22:41.431Z,4.47
2019-05-18T12:25:10.988Z,3.93
2019-05-18T12:27:40.567Z,3.97
2019-05-18T12:30:11.609Z,4.70
2019-05-18T12:32:41.364Z,4.23
2019-05-18T12:35:11.134Z,4.43
2019-05-18T12:37:40.575Z,4.40
2019-05-18T12:40:11.399Z,4.53
2019-05-18T12:42:40.796Z,4.30
2019-05-18T12:45:10.935Z,4.00
2019-05-18T12:47:40.346Z,4.77
2019-05-18T12:50:10.960Z,4.00
2019-05-18T12:52:40.382Z,3.70
2019-05-18T12:55:09.907Z,3.80
2019-05-18T12:57:39.475Z,3.57
2019-05-18T13:00:09.386Z,5.10
2019-05-18T13:02:38.812Z,4.50
2019-05-18T13:05:08.965Z,3.80
2019-05-18T13:07:38.404Z,3.50
2019-05-18T13:10:09.327Z,3.33
2019-05-18T13:12:38.793Z,3.30
2019-05-18T13:15:10.118Z,3.17
2019-05-18T13:17:39.529Z,3.00
2019-05-18T13:20:10.571Z,3.20
2019-05-18T13:22:40.184Z,2.97
2019-05-18T13:25:10.593Z,3.90
2019-05-18T13:27:40.390Z,3.00
2019-05-18T13:30:11.077Z,3.30
2019-05-18T13:32:40.539Z,3.33
2019-05-18T13:35:10.930Z,3.63
2019-05-18T13:37:40.264Z,3.50
2019-05-18T13:40:12.316Z,3.33
2019-05-18T13:42:41.792Z,3.40
2019-05-18T13:45:11.909Z,3.40
2019-05-18T13:47:41.349Z,3.47
2019-05-18T13:50:10.770Z,3.90
2019-05-18T13:52:41.137Z,3.43
2019-05-18T13:55:10.730Z,3.10
2019-05-18T13:57:40.190Z,3.40
2019-05-18T14:00:10.990Z,3.30
2019-05-18T14:02:40.783Z,3.50
2019-05-18T14:05:11.834Z,3.93
2019-05-18T14:07:41.289Z,3.47
2019-05-18T14:10:12.870Z,3.50
2019-05-18T14:12:42.979Z,3.17
2019-05-18T14:15:12.925Z,3.27
2019-05-18T14:17:42.352Z,3.80
2019-05-18T14:20:12.313Z,3.97
2019-05-18T14:22:41.760Z,3.57
2019-05-18T14:25:19.229Z,3.60
2019-05-18T14:27:42.634Z,2.70
2019-05-18T14:30:13.701Z,3.00
2019-05-18T14:32:43.261Z,3.00
2019-05-18T14:35:12.782Z,2.80
2019-05-18T14:37:42.223Z,3.53
2019-05-18T14:40:12.177Z,3.00
2019-05-18T14:42:41.604Z,3.23
2019-05-18T14:45:11.297Z,3.07
2019-05-18T14:47:40.746Z,3.27
2019-05-18T14:50:11.501Z,3.30
2019-05-18T14:52:40.890Z,3.10
2019-05-18T14:55:10.519Z,3.33
2019-05-18T14:57:40.442Z,3.30
2019-05-18T15:00:10.439Z,3.10
2019-05-18T15:02:39.854Z,3.10
2019-05-18T15:05:09.871Z,3.00
2019-05-18T15:07:39.235Z,3.20
2019-05-18T15:10:09.599Z,3.20
2019-05-18T15:12:39.329Z,3.77
2019-05-18T15:15:09.534Z,3.50
2019-05-18T15:17:38.964Z,3.63
2019-05-18T15:20:11.801Z,3.10
2019-05-18T15:22:41.267Z,3.83
2019-05-18T15:25:11.630Z,3.60
2019-05-18T15:27:41.069Z,3.27
2019-05-18T15:30:11.020Z,2.93
2019-05-18T15:32:40.480Z,4.63
2019-05-18T15:35:10.381Z,14.23
2019-05-18T15:37:43.208Z,11.57
2019-05-18T15:40:11.639Z,8.00
2019-05-18T15:42:41.136Z,7.73
2019-05-18T15:45:11.348Z,5.90
2019-05-18T15:47:40.727Z,4.17
2019-05-18T15:50:11.004Z,3.27
2019-05-18T15:52:40.751Z,5.67
2019-05-18T15:55:10.539Z,5.37
2019-05-18T15:57:39.941Z,4.53
2019-05-18T16:00:10.115Z,25.33
2019-05-18T16:02:39.614Z,5.83
2019-05-18T16:05:10.087Z,12.70
2019-05-18T16:07:39.723Z,4.10
2019-05-18T16:10:09.860Z,3.60
2019-05-18T16:12:39.321Z,6.67
2019-05-18T16:15:10.283Z,4.47
2019-05-18T16:17:40.434Z,3.53
2019-05-18T16:20:10.598Z,8.00
2019-05-18T16:22:40.007Z,6.07
2019-05-18T16:25:09.554Z,7.90
2019-05-18T16:27:38.989Z,10.37
2019-05-18T16:30:09.602Z,9.27
2019-05-18T16:32:39.021Z,5.83
2019-05-18T16:35:08.918Z,3.57
2019-05-18T16:37:38.345Z,4.23
2019-05-18T16:40:08.353Z,4.13
2019-05-18T16:42:37.815Z,3.57
2019-05-18T16:45:08.781Z,3.80
2019-05-18T16:47:38.175Z,3.87
2019-05-18T16:50:08.605Z,5.80
2019-05-18T16:52:38.067Z,3.30
2019-05-18T16:55:08.989Z,12.30
2019-05-18T16:57:38.468Z,7.53
2019-05-18T17:00:09.563Z,8.93
2019-05-18T17:02:40.028Z,11.23
2019-05-18T17:05:09.822Z,7.30
2019-05-18T17:07:39.447Z,6.60
2019-05-18T17:10:09.354Z,7.10
2019-05-18T17:12:38.866Z,6.20
2019-05-18T17:15:09.684Z,6.37
2019-05-18T17:17:39.081Z,6.23
2019-05-18T17:20:09.417Z,6.23
2019-05-18T17:22:39.229Z,6.67
2019-05-18T17:25:09.703Z,6.47
2019-05-18T17:27:39.122Z,6.47
2019-05-18T17:30:09.307Z,7.27
2019-05-18T17:32:38.799Z,7.97
2019-05-18T17:35:08.771Z,6.77
2019-05-18T17:37:38.148Z,6.90
2019-05-18T17:40:08.311Z,6.40
2019-05-18T17:42:37.879Z,6.30
2019-05-18T17:45:08.349Z,6.40
2019-05-18T17:47:37.772Z,5.60
2019-05-18T17:50:07.374Z,6.10
2019-05-18T17:52:36.808Z,6.10
2019-05-18T17:55:06.978Z,5.80
2019-05-18T17:57:36.591Z,6.13
2019-05-18T18:00:06.511Z,5.67
2019-05-18T18:02:36.103Z,5.40
2019-05-18T18:05:06.394Z,5.70
2019-05-18T18:07:36.089Z,5.87
2019-05-18T18:10:06.281Z,5.97
2019-05-18T18:12:35.839Z,5.90
2019-05-18T18:15:05.705Z,6.10
2019-05-18T18:17:35.469Z,6.87
2019-05-18T18:20:05.363Z,7.77
2019-05-18T18:22:35.097Z,7.40
2019-05-18T18:25:05.236Z,7.60
2019-05-18T18:27:34.731Z,6.97
2019-05-18T18:30:04.555Z,12.80
2019-05-18T18:32:34.743Z,8.67
2019-05-18T18:35:04.579Z,9.10
2019-05-18T18:37:34.451Z,7.60
2019-05-18T18:40:04.505Z,8.50
2019-05-18T18:42:34.159Z,8.77
2019-05-18T18:45:03.675Z,7.93
2019-05-18T18:47:33.642Z,8.47
2019-05-18T18:50:03.116Z,8.33
2019-05-18T18:52:32.537Z,8.20
2019-05-18T18:55:02.089Z,8.60
2019-05-18T18:57:40.798Z,10.37
2019-05-18T19:00:02.751Z,10.27
2019-05-18T19:02:32.204Z,11.00
2019-05-18T19:05:01.738Z,11.60
2019-05-18T19:07:31.195Z,11.80
2019-05-18T19:10:00.581Z,12.67
2019-05-18T19:12:30.454Z,13.00
2019-05-18T19:15:00.011Z,12.37
2019-05-18T19:17:29.570Z,13.53
2019-05-18T19:19:59.006Z,12.53
2019-05-18T19:22:28.461Z,14.67
2019-05-18T19:24:57.900Z,14.00
2019-05-18T19:27:27.345Z,14.03
2019-05-18T19:29:57.134Z,14.37
2019-05-18T19:32:26.594Z,15.37
2019-05-18T19:34:56.031Z,15.43
2019-05-18T19:37:26.565Z,13.97
2019-05-18T19:39:56.131Z,15.23
2019-05-18T19:42:25.555Z,15.77
2019-05-18T19:44:54.983Z,15.33
2019-05-18T19:47:24.365Z,16.63
2019-05-18T19:49:53.851Z,17.23
2019-05-18T19:52:23.337Z,16.50
2019-05-18T19:54:52.710Z,15.90
2019-05-18T19:57:22.140Z,17.27
2019-05-18T19:59:51.633Z,16.60
2019-05-18T20:02:21.146Z,15.73
2019-05-18T20:05:06.449Z,17.07
2019-05-18T20:07:21.742Z,17.27
2019-05-18T20:09:53.000Z,16.60
2019-05-18T20:14:46.085Z,17.33
2019-05-18T20:17:15.951Z,18.47
2019-05-18T20:19:45.340Z,18.37
2019-05-18T20:22:14.806Z,18.60
2019-05-18T20:24:44.237Z,18.07
2019-05-18T20:27:13.719Z,18.73
2019-05-18T20:29:43.163Z,17.40
2019-05-18T20:32:12.609Z,16.87
2019-05-18T20:34:42.024Z,16.23
2019-05-18T20:37:11.461Z,17.20
2019-05-18T20:39:40.890Z,17.53
2019-05-18T20:42:10.371Z,17.27
2019-05-18T20:44:39.904Z,17.20
2019-05-18T20:47:09.404Z,18.07
2019-05-18T20:49:38.775Z,18.90
2019-05-18T20:52:08.317Z,17.83
2019-05-18T20:54:37.751Z,18.53
2019-05-18T20:57:07.183Z,18.27
2019-05-18T20:59:36.657Z,18.43
2019-05-18T21:02:06.139Z,19.00
2019-05-18T21:04:35.635Z,18.90
2019-05-18T21:07:05.034Z,18.13
2019-05-18T21:09:34.575Z,18.87
2019-05-18T21:12:04.395Z,18.90
2019-05-18T21:14:34.456Z,18.67
2019-05-18T21:17:03.881Z,19.10
2019-05-18T21:19:33.737Z,18.60
2019-05-18T21:22:03.863Z,19.40
2019-05-18T21:24:33.341Z,19.40
2019-05-18T21:27:02.822Z,20.33
2019-05-18T21:29:32.396Z,20.13
2019-05-18T21:32:01.819Z,20.53
2019-05-18T21:34:31.935Z,19.70
2019-05-18T21:37:01.394Z,20.70
2019-05-18T21:39:30.856Z,20.57
2019-05-18T21:42:00.361Z,20.07
2019-05-18T21:44:29.763Z,21.40
2019-05-18T21:46:59.203Z,20.47
2019-05-18T21:49:28.877Z,20.93
2019-05-18T21:52:01.317Z,21.47
2019-05-18T21:54:30.774Z,21.40
2019-05-18T21:57:00.599Z,21.87
2019-05-18T21:59:30.094Z,21.87
2019-05-18T22:01:59.951Z,19.80
2019-05-18T22:04:29.402Z,20.97
2019-05-18T22:06:59.681Z,20.07
2019-05-18T22:09:29.617Z,20.57
2019-05-18T22:11:59.057Z,20.03
2019-05-18T22:14:29.311Z,20.37
2019-05-18T22:16:58.791Z,20.37
2019-05-18T22:19:28.246Z,20.80
2019-05-18T22:21:57.693Z,20.43
2019-05-18T22:24:27.506Z,21.47
2019-05-18T22:26:57.099Z,21.43
2019-05-18T22:29:26.724Z,22.70
2019-05-18T22:31:56.353Z,22.23
2019-05-18T22:34:25.730Z,20.77
2019-05-18T22:36:55.596Z,19.93
2019-05-18T22:39:44.091Z,21.47
2019-05-18T22:42:13.529Z,23.80
2019-05-18T22:44:42.965Z,22.60
2019-05-18T22:47:12.400Z,22.70
2019-05-18T22:49:42.597Z,22.07
2019-05-18T22:52:12.131Z,22.00
2019-05-18T22:54:41.553Z,23.03
2019-05-18T22:57:11.432Z,23.53
2019-05-18T22:59:40.865Z,21.97
2019-05-18T23:02:10.321Z,22.47
2019-05-18T23:04:39.756Z,21.17
2019-05-18T23:07:09.199Z,21.00
2019-05-18T23:09:38.687Z,20.27
2019-05-18T23:12:08.132Z,20.50
2019-05-18T23:14:37.712Z,20.17
2019-05-18T23:17:07.488Z,19.90
2019-05-18T23:19:36.937Z,19.60
2019-05-18T23:22:06.284Z,18.53
2019-05-18T23:24:35.758Z,18.90
2019-05-18T23:27:05.771Z,18.67
2019-05-18T23:29:35.188Z,19.90
2019-05-18T23:32:04.652Z,19.20
2019-05-18T23:34:34.068Z,19.37
2019-05-18T23:37:03.505Z,21.50
2019-05-18T23:39:32.946Z,20.17
2019-05-18T23:42:02.404Z,20.20
2019-05-18T23:44:31.862Z,19.57
2019-05-18T23:47:01.283Z,19.60
2019-05-18T23:49:30.860Z,19.17
2019-05-18T23:52:00.259Z,19.40
2019-05-18T23:54:29.706Z,20.27
2019-05-18T23:56:59.136Z,19.30
2019-05-18T23:59:28.734Z,19.50
